Time;durP1;ratioP1;P1;durP2;ratioP2;P2;SDS_P1;SDS_P2;PMS_P1;PMS_P2;Temp;Humidity;BMP_temperature;BMP_pressure;BME280_temperature;BME280_humidity;BME280_pressure;Samples;Min_cycle;Max_cycle;Signal;HPM_P1;HPM_P2
2024/03/16 00:02:13;;;;;;;19.15;9.40;;;;;;;8.08;100.00;100086.03;5029454;28;20419;-81
2024/03/16 00:04:45;;;;;;;18.20;10.00;;;;;;;8.14;100.00;100095.75;5019064;28;20460;-83
2024/03/16 00:07:18;;;;;;;18.70;9.70;;;;;;;8.09;100.00;100097.66;5025535;28;20427;-81
2024/03/16 00:09:46;;;;;;;20.52;10.10;;;;;;;8.06;100.00;100104.44;5027584;28;20902;-82
2024/03/16 00:12:15;;;;;;;19.00;9.80;;;;;;;8.05;100.00;100102.84;5047945;28;21094;-81
2024/03/16 00:14:48;;;;;;;18.50;9.75;;;;;;;8.04;100.00;100094.97;5025722;28;20411;-82
2024/03/16 00:17:17;;;;;;;20.25;10.15;;;;;;;8.17;100.00;100106.06;5028558;28;20428;-81
2024/03/16 00:19:51;;;;;;;21.38;10.23;;;;;;;8.16;100.00;100101.72;5029041;28;20411;-81
2024/03/16 00:22:19;;;;;;;24.03;10.90;;;;;;;8.20;100.00;100107.38;5016285;28;20430;-81
2024/03/16 00:24:53;;;;;;;18.75;10.35;;;;;;;8.18;100.00;100098.72;5040335;28;20424;-81
2024/03/16 00:27:21;;;;;;;21.33;10.00;;;;;;;8.13;100.00;100096.03;5008499;28;20897;-82
2024/03/16 00:29:55;;;;;;;24.08;10.68;;;;;;;8.26;100.00;100100.03;5036854;28;20434;-81
2024/03/16 00:32:23;;;;;;;23.58;10.48;;;;;;;8.32;100.00;100099.72;5026737;28;20407;-81
2024/03/16 00:34:56;;;;;;;19.70;10.60;;;;;;;8.26;100.00;100100.03;5035301;28;20791;-81
2024/03/16 00:37:25;;;;;;;21.92;10.63;;;;;;;8.39;100.00;100098.63;5016870;28;20418;-81
2024/03/16 00:39:58;;;;;;;20.33;10.50;;;;;;;8.38;100.00;100103.22;5023171;28;20793;-83
2024/03/16 00:42:27;;;;;;;21.45;10.20;;;;;;;8.44;100.00;100091.25;5026918;28;20891;-81
2024/03/16 00:44:55;;;;;;;24.25;10.98;;;;;;;8.39;100.00;100093.19;5018487;28;20419;-81
2024/03/16 00:47:29;;;;;;;23.53;10.87;;;;;;;8.42;100.00;100096.16;5025683;28;20480;-81
2024/03/16 00:49:57;;;;;;;19.20;10.50;;;;;;;8.44;100.00;100080.41;5030127;28;20489;-81
2024/03/16 00:52:30;;;;;;;20.93;10.33;;;;;;;8.55;100.00;100088.50;5042733;28;20407;-81
2024/03/16 00:54:59;;;;;;;19.83;10.30;;;;;;;8.46;100.00;100088.31;5030423;28;20421;-82
2024/03/16 00:57:28;;;;;;;20.88;10.27;;;;;;;8.46;100.00;100083.69;5050842;28;20430;-84
2024/03/16 01:00:02;;;;;;;22.50;10.75;;;;;;;8.50;100.00;100086.66;5050661;28;20418;-81
2024/03/16 01:02:35;;;;;;;20.63;10.20;;;;;;;8.50;100.00;100076.59;5026542;28;20419;-82
2024/03/16 01:05:08;;;;;;;24.60;11.38;;;;;;;8.60;100.00;100089.28;5021436;28;20969;-81
2024/03/16 01:07:42;;;;;;;20.88;11.43;;;;;;;8.55;100.00;100085.81;5024227;28;20788;-81
2024/03/16 01:10:11;;;;;;;23.30;11.30;;;;;;;8.58;100.00;100093.41;5033018;28;20430;-82
2024/03/16 01:12:44;;;;;;;24.38;11.80;;;;;;;8.60;100.00;100086.56;5021597;28;20765;-83
2024/03/16 01:15:18;;;;;;;23.30;11.98;;;;;;;8.60;100.00;100086.56;5034201;28;20429;-81
2024/03/16 01:17:52;;;;;;;26.27;12.80;;;;;;;8.69;100.00;100075.97;5022167;28;20419;-83
2024/03/16 01:20:20;;;;;;;25.17;13.02;;;;;;;8.70;100.00;100076.75;5038266;28;20894;-81
2024/03/16 01:22:49;;;;;;;25.47;13.33;;;;;;;8.58;100.00;100080.63;5039088;28;20948;-83
2024/03/16 01:25:17;;;;;;;29.13;13.38;;;;;;;8.51;100.00;100066.59;5027749;28;20436;-81
2024/03/16 01:27:45;;;;;;;26.90;13.57;;;;;;;8.41;100.00;100074.72;5030094;28;20417;-81
2024/03/16 01:30:21;;;;;;;26.67;13.85;;;;;;;8.48;100.00;100072.56;5030913;28;20902;-81
2024/03/16 01:32:49;;;;;;;30.30;14.05;;;;;;;8.37;100.00;100073.66;5044927;28;20410;-83
2024/03/16 01:35:18;;;;;;;26.60;14.20;;;;;;;8.42;100.00;100062.81;5023389;28;20512;-82
2024/03/16 01:37:52;;;;;;;30.33;14.45;;;;;;;8.46;100.00;100059.28;5024040;28;20423;-81
2024/03/16 01:40:25;;;;;;;28.33;14.27;;;;;;;8.55;100.00;100062.22;5029161;28;20901;-82
2024/03/16 01:42:58;;;;;;;28.93;15.20;;;;;;;8.55;100.00;100069.53;5037673;28;20422;-82
2024/03/16 01:45:27;;;;;;;28.13;14.63;;;;;;;8.50;100.00;100063.03;5026195;28;20421;-82
2024/03/16 01:48:03;;;;;;;27.45;14.32;;;;;;;8.50;100.00;100067.66;5028395;28;20426;-82
2024/03/16 01:50:37;;;;;;;30.63;15.25;;;;;;;8.60;100.00;100059.44;5042402;28;20431;-81
2024/03/16 01:53:10;;;;;;;29.77;14.88;;;;;;;8.57;100.00;100061.94;5014226;28;20432;-81
2024/03/16 01:55:43;;;;;;;29.35;15.23;;;;;;;8.54;100.00;100062.50;5021778;28;21168;-82
2024/03/16 01:58:12;;;;;;;28.15;14.63;;;;;;;8.47;100.00;100065.53;5038725;28;20428;-81
2024/03/16 02:00:45;;;;;;;31.60;15.75;;;;;;;8.66;100.00;100060.25;5021225;28;20423;-81
2024/03/16 02:03:19;;;;;;;28.50;15.13;;;;;;;8.64;100.00;100059.72;5022525;28;21257;-81
2024/03/16 02:05:52;;;;;;;31.57;16.13;;;;;;;8.65;100.00;100061.34;5051680;28;20538;-81
2024/03/16 02:08:20;;;;;;;31.23;15.93;;;;;;;8.88;100.00;100061.69;5019037;28;21186;-81
2024/03/16 02:10:49;;;;;;;29.63;15.93;;;;;;;8.74;100.00;100059.66;5020786;28;20423;-80
2024/03/16 02:13:17;;;;;;;32.65;16.30;;;;;;;8.83;100.00;100062.56;5020405;28;20416;-83
2024/03/16 02:15:45;;;;;;;31.33;16.50;;;;;;;8.72;100.00;100061.03;5018002;28;20424;-81
2024/03/16 02:18:13;;;;;;;34.45;17.00;;;;;;;8.84;100.00;100058.75;5033903;28;20419;-83
2024/03/16 02:20:41;;;;;;;35.47;17.15;;;;;;;8.85;100.00;100057.66;5015936;28;20432;-80
2024/03/16 02:23:10;;;;;;;28.88;16.75;;;;;;;8.85;100.00;100058.47;5048163;28;21117;-81
2024/03/16 02:25:38;;;;;;;32.13;17.27;;;;;;;8.85;100.00;100063.91;5019131;28;20420;-82
2024/03/16 02:28:12;;;;;;;31.95;16.27;;;;;;;8.73;100.00;100068.03;5027865;28;20407;-82
2024/03/16 02:30:40;;;;;;;33.25;17.45;;;;;;;8.66;100.00;100063.75;5028470;28;20415;-81
2024/03/16 02:33:10;;;;;;;32.90;17.48;;;;;;;8.75;100.00;100058.53;5037392;28;20430;-80
2024/03/16 02:35:43;;;;;;;35.37;18.33;;;;;;;8.71;100.00;100048.53;5037759;28;20512;-81
2024/03/16 02:38:12;;;;;;;31.45;16.95;;;;;;;8.73;100.00;100055.31;5021255;28;20416;-82
2024/03/16 02:40:42;;;;;;;30.70;17.23;;;;;;;8.75;100.00;100061.25;5017775;28;20430;-81
2024/03/16 02:43:15;;;;;;;29.65;17.67;;;;;;;8.73;100.00;100060.75;5020449;28;20446;-80
2024/03/16 02:45:44;;;;;;;31.77;17.52;;;;;;;8.59;100.00;100054.31;5030363;28;20422;-81
2024/03/16 02:48:12;;;;;;;35.80;18.25;;;;;;;8.55;100.00;100053.25;5029481;28;20438;-81
2024/03/16 02:50:40;;;;;;;32.87;17.47;;;;;;;8.60;100.00;100056.75;5026829;28;20453;-81
2024/03/16 02:53:14;;;;;;;33.88;17.58;;;;;;;8.72;100.00;100055.59;5021395;28;20419;-81
2024/03/16 02:55:41;;;;;;;34.60;18.40;;;;;;;8.67;100.00;100064.56;5036245;28;20431;-81
2024/03/16 02:58:15;;;;;;;33.85;17.58;;;;;;;8.75;100.00;100063.97;5015355;28;20433;-84
2024/03/16 03:00:44;;;;;;;34.42;17.75;;;;;;;8.75;100.00;100063.16;5030127;28;20421;-83
2024/03/16 03:03:12;;;;;;;29.23;17.25;;;;;;;8.82;100.00;100058.22;5025214;28;20425;-81
2024/03/16 03:05:46;;;;;;;31.33;18.10;;;;;;;8.75;100.00;100060.44;5031202;28;20415;-82
2024/03/16 03:08:20;;;;;;;36.03;19.13;;;;;;;8.80;100.00;100060.41;5031476;28;20444;-81
2024/03/16 03:10:53;;;;;;;34.92;19.35;;;;;;;8.88;100.00;100062.53;5033673;28;20425;-81
2024/03/16 03:13:21;;;;;;;32.95;18.40;;;;;;;8.88;100.00;100069.84;5031017;28;20411;-81
2024/03/16 03:15:56;;;;;;;36.72;19.40;;;;;;;8.85;100.00;100073.94;5031677;28;20946;-81
2024/03/16 03:18:25;;;;;;;35.80;18.65;;;;;;;8.89;100.00;100074.19;5013882;28;20886;-82
2024/03/16 03:20:58;;;;;;;33.35;18.55;;;;;;;8.99;100.00;100072.19;5036541;28;20751;-82
2024/03/16 03:23:28;;;;;;;35.13;19.13;;;;;;;9.02;100.00;100071.63;5035046;28;20416;-81
2024/03/16 03:25:56;;;;;;;35.67;19.10;;;;;;;9.04;100.00;100074.06;5042128;28;20408;-81
2024/03/16 03:28:29;;;;;;;34.88;18.63;;;;;;;9.16;100.00;100071.78;5018190;28;20425;-83
2024/03/16 03:30:58;;;;;;;37.10;19.38;;;;;;;9.08;100.00;100079.72;5027268;28;20417;-80
2024/03/16 03:33:31;;;;;;;33.10;19.02;;;;;;;9.08;100.00;100083.25;5033595;28;20421;-81
2024/03/16 03:36:05;;;;;;;34.90;19.73;;;;;;;9.07;100.00;100073.47;5031904;28;20767;-82
2024/03/16 03:38:39;;;;;;;35.00;19.53;;;;;;;9.12;100.00;100075.34;5022495;28;20508;-82
2024/03/16 03:41:12;;;;;;;38.13;19.48;;;;;;;9.11;100.00;100077.25;5033165;28;20424;-81
2024/03/16 03:43:47;;;;;;;36.20;19.33;;;;;;;9.14;100.00;100071.25;5021699;28;20427;-82
2024/03/16 03:46:29;;;;;;;36.63;19.83;;;;;;;9.09;100.00;100074.03;5012912;28;20431;-82
2024/03/16 03:49:10;;;;;;;36.27;19.30;;;;;;;9.18;100.00;100066.06;5029626;28;20426;-80
2024/03/16 03:51:39;;;;;;;35.10;20.10;;;;;;;9.16;100.00;100070.97;5029506;28;20424;-81
2024/03/16 03:54:07;;;;;;;34.20;19.90;;;;;;;9.19;100.00;100071.19;5006386;28;20417;-81
2024/03/16 03:56:41;;;;;;;37.95;19.38;;;;;;;9.13;100.00;100063.41;5012436;28;21053;-82
2024/03/16 03:59:14;;;;;;;30.30;19.23;;;;;;;9.10;100.00;100053.09;5033281;28;20423;-81
2024/03/16 04:01:48;;;;;;;39.20;19.77;;;;;;;9.08;100.00;100058.03;5031664;28;20904;-81
2024/03/16 04:04:21;;;;;;;34.83;18.63;;;;;;;8.85;100.00;100057.66;5026077;28;20433;-81
2024/03/16 04:06:50;;;;;;;30.85;19.40;;;;;;;8.84;100.00;100058.75;5017780;28;20434;-82
2024/03/16 04:09:23;;;;;;;40.05;20.13;;;;;;;8.88;100.00;100059.81;5035615;28;20421;-81
2024/03/16 04:11:57;;;;;;;34.30;19.35;;;;;;;8.93;100.00;100062.47;5012883;28;20413;-81
2024/03/16 04:14:25;;;;;;;38.42;19.55;;;;;;;8.83;100.00;100062.56;5046894;28;20404;-81
2024/03/16 04:16:53;;;;;;;43.07;19.93;;;;;;;8.68;100.00;100060.75;5032991;28;20536;-81
2024/03/16 04:19:27;;;;;;;37.00;19.88;;;;;;;8.68;100.00;100056.13;5019786;28;20902;-81
2024/03/16 04:22:00;;;;;;;36.37;18.90;;;;;;;8.69;100.00;100051.53;5042964;28;20926;-83
2024/03/16 04:24:29;;;;;;;38.40;20.27;;;;;;;8.66;100.00;100055.63;5035363;28;20415;-81
2024/03/16 04:27:03;;;;;;;38.80;20.48;;;;;;;8.79;100.00;100051.44;5040396;28;20946;-81
2024/03/16 04:29:36;;;;;;;34.97;18.80;;;;;;;8.84;100.00;100056.84;5015824;28;20786;-81
2024/03/16 04:32:05;;;;;;;40.42;19.52;;;;;;;8.85;100.00;100063.06;5041175;28;20421;-81
2024/03/16 04:34:33;;;;;;;38.35;19.20;;;;;;;8.93;100.00;100058.94;5030461;28;20419;-81
2024/03/16 04:37:08;;;;;;;36.40;19.30;;;;;;;8.90;100.00;100059.53;5037481;28;20420;-81
2024/03/16 04:39:43;;;;;;;33.55;19.02;;;;;;;8.85;100.00;100060.34;5017985;28;20428;-81
2024/03/16 04:42:11;;;;;;;36.17;19.00;;;;;;;8.70;100.00;100061.31;5034311;28;20427;-81
2024/03/16 04:44:40;;;;;;;31.15;17.63;;;;;;;8.79;100.00;100056.06;5032323;28;20461;-81
2024/03/16 04:47:13;;;;;;;31.77;17.73;;;;;;;8.92;100.00;100063.59;5024893;28;20415;-81
2024/03/16 04:49:46;;;;;;;31.93;17.93;;;;;;;9.00;100.00;100073.81;5030614;28;21154;-81
2024/03/16 04:52:15;;;;;;;32.63;16.88;;;;;;;9.06;100.00;100074.59;5028854;28;20423;-81
2024/03/16 04:54:49;;;;;;;35.42;18.67;;;;;;;9.02;100.00;100068.91;5026704;28;20412;-81
2024/03/16 04:57:22;;;;;;;33.30;16.33;;;;;;;9.07;100.00;100068.03;5024192;28;20425;-83
2024/03/16 04:59:56;;;;;;;34.38;16.20;;;;;;;9.06;100.00;100074.59;5026886;28;20424;-81
2024/03/16 05:02:30;;;;;;;32.42;15.80;;;;;;;9.06;100.00;100069.16;5033570;28;20431;-80
2024/03/16 05:05:06;;;;;;;33.77;16.90;;;;;;;9.09;100.00;100071.31;5021920;28;20421;-82
2024/03/16 05:07:39;;;;;;;29.23;14.98;;;;;;;9.07;100.00;100065.34;5024525;28;20418;-82
2024/03/16 05:10:08;;;;;;;31.20;15.88;;;;;;;9.07;100.00;100070.75;5016578;28;20446;-81
2024/03/16 05:12:41;;;;;;;30.63;14.68;;;;;;;9.16;100.00;100062.84;5019214;28;20425;-81
2024/03/16 05:15:15;;;;;;;30.52;15.00;;;;;;;9.22;100.00;100064.38;5038673;28;21360;-81
2024/03/16 05:17:48;;;;;;;33.83;15.95;;;;;;;9.17;100.00;100057.13;5025001;28;20409;-82
2024/03/16 05:20:22;;;;;;;30.05;15.25;;;;;;;9.27;100.00;100063.56;5031934;28;20455;-82
2024/03/16 05:22:50;;;;;;;30.48;15.10;;;;;;;9.17;100.00;100062.53;5024454;28;20428;-82
2024/03/16 05:25:23;;;;;;;31.23;15.07;;;;;;;9.16;100.00;100070.97;5027068;28;20420;-81
2024/03/16 05:27:57;;;;;;;28.55;14.75;;;;;;;9.19;100.00;100071.19;5038110;28;20436;-82
2024/03/16 05:30:25;;;;;;;27.20;14.57;;;;;;;9.16;100.00;100074.50;5019938;28;20513;-82
2024/03/16 05:32:58;;;;;;;31.48;15.23;;;;;;;9.09;100.00;100078.66;5033490;28;20424;-81
2024/03/16 05:35:28;;;;;;;30.33;14.90;;;;;;;9.17;100.00;100078.84;5013559;28;20427;-82
2024/03/16 05:37:56;;;;;;;29.35;14.10;;;;;;;9.28;100.00;100070.59;5040500;28;20419;-81
2024/03/16 05:40:25;;;;;;;31.77;14.23;;;;;;;9.30;100.00;100074.63;5039018;28;20399;-81
2024/03/16 05:42:58;;;;;;;26.88;13.57;;;;;;;9.35;100.00;100084.66;5025598;28;20423;-82
2024/03/16 05:45:26;;;;;;;32.90;13.73;;;;;;;9.30;100.00;100084.69;5038545;28;20423;-81
2024/03/16 05:48:00;;;;;;;27.67;13.18;;;;;;;9.29;100.00;100085.78;5039467;28;20442;-81
2024/03/16 05:50:28;;;;;;;28.05;13.63;;;;;;;9.23;100.00;100095.09;5034200;28;20419;-80
2024/03/16 05:53:02;;;;;;;33.65;13.85;;;;;;;9.21;100.00;100095.38;5042572;28;20442;-82
2024/03/16 05:55:30;;;;;;;31.08;13.32;;;;;;;9.17;100.00;100097.84;5020851;28;20415;-83
2024/03/16 05:58:03;;;;;;;28.92;13.18;;;;;;;9.05;100.00;100094.69;5037390;28;20432;-81
2024/03/16 06:00:38;;;;;;;32.05;14.63;;;;;;;9.04;100.00;100082.19;5028575;28;20417;-80
2024/03/16 06:03:12;;;;;;;27.85;13.40;;;;;;;9.04;100.00;100087.63;5028624;28;20432;-81
2024/03/16 06:05:42;;;;;;;36.17;13.52;;;;;;;9.07;100.00;100086.25;5023517;28;20421;-81
2024/03/16 06:08:15;;;;;;;28.05;13.32;;;;;;;8.99;100.00;100095.78;5014068;28;20432;-81
2024/03/16 06:10:48;;;;;;;29.65;12.63;;;;;;;9.04;100.00;100152.75;5030672;28;20432;-81
2024/03/16 06:13:22;;;;;;;14.27;5.20;;;;;;;8.67;100.00;100167.66;5031507;28;20423;-80
2024/03/16 06:15:55;;;;;;;12.27;4.15;;;;;;;8.44;100.00;100174.53;5027989;28;20898;-81
2024/03/16 06:18:29;;;;;;;9.17;3.60;;;;;;;8.22;100.00;100172.97;5020476;28;20432;-81
2024/03/16 06:20:57;;;;;;;9.45;3.42;;;;;;;8.21;100.00;100178.66;5013882;28;20415;-83
2024/03/16 06:23:31;;;;;;;10.73;5.57;;;;;;;8.01;100.00;100177.66;5020255;28;20447;-81
2024/03/16 06:26:06;;;;;;;7.70;3.20;;;;;;;8.05;100.00;100184.16;5023821;28;20431;-81
2024/03/16 06:28:39;;;;;;;6.10;2.65;;;;;;;7.99;100.00;100198.78;5019778;28;20415;-81
2024/03/16 06:31:10;;;;;;;5.47;2.05;;;;;;;7.92;100.00;100190.94;5027555;28;20405;-81
2024/03/16 06:33:45;;;;;;;6.20;2.42;;;;;;;7.88;100.00;100197.97;5016523;28;20428;-81
2024/03/16 06:36:13;;;;;;;4.13;1.95;;;;;;;7.79;100.00;100192.31;5034366;28;20411;-81
2024/03/16 06:38:46;;;;;;;5.43;2.05;;;;;;;7.82;100.00;100199.88;5029733;28;20427;-81
2024/03/16 06:41:20;;;;;;;4.00;1.83;;;;;;;7.77;100.00;100204.50;5032962;28;20439;-80
2024/03/16 06:43:53;;;;;;;4.05;1.90;;;;;;;7.77;100.00;100213.44;5029089;28;20778;-80
2024/03/16 06:46:23;;;;;;;3.43;1.80;;;;;;;7.81;100.00;100221.84;5019924;28;20450;-81
2024/03/16 06:48:51;;;;;;;8.80;2.05;;;;;;;7.72;100.00;100229.72;5027048;28;20534;-81
2024/03/16 06:51:20;;;;;;;5.82;2.22;;;;;;;7.65;100.00;100232.69;5022004;28;20430;-82
2024/03/16 06:53:49;;;;;;;5.80;2.25;;;;;;;7.64;100.00;100233.75;5016297;28;20886;-80
2024/03/16 06:56:19;;;;;;;4.43;2.20;;;;;;;7.54;100.00;100232.94;5033450;28;20412;-81
2024/03/16 06:58:47;;;;;;;7.32;2.50;;;;;;;7.49;100.00;100248.09;5016942;28;20426;-81
2024/03/16 07:01:24;;;;;;;7.22;2.75;;;;;;;7.49;100.00;100255.44;5027529;28;20792;-81
2024/03/16 07:03:52;;;;;;;6.03;2.78;;;;;;;7.46;100.00;100261.38;5013775;28;20430;-81
2024/03/16 07:06:26;;;;;;;8.10;3.30;;;;;;;7.55;100.00;100267.06;5025298;28;20442;-81
2024/03/16 07:09:02;;;;;;;6.72;3.00;;;;;;;7.53;100.00;100269.25;5013405;28;20427;-82
2024/03/16 07:11:36;;;;;;;9.43;3.30;;;;;;;7.45;100.00;100281.41;5036223;28;20435;-80
2024/03/16 07:14:04;;;;;;;6.00;2.92;;;;;;;7.59;100.00;100279.78;5017842;28;20880;-82
2024/03/16 07:16:38;;;;;;;8.37;3.20;;;;;;;7.44;100.00;100298.72;5012533;28;20416;-81
2024/03/16 07:19:11;;;;;;;10.43;3.33;;;;;;;7.40;100.00;100303.06;5014629;28;20414;-84
2024/03/16 07:21:39;;;;;;;8.82;3.28;;;;;;;7.47;100.00;100306.31;5013735;28;20427;-87
2024/03/16 07:24:09;;;;;;;8.13;3.42;;;;;;;7.44;100.00;100314.97;5015862;28;20419;-88
2024/03/16 07:26:43;;;;;;;11.07;3.50;;;;;;;7.41;100.00;100312.81;5019479;28;20420;-88
2024/03/16 07:29:11;;;;;;;10.73;3.58;;;;;;;7.31;100.00;100314.41;5012306;28;20417;-85
2024/03/16 07:31:45;;;;;;;10.57;3.83;;;;;;;7.37;100.00;100330.66;5018784;28;20420;-81
2024/03/16 07:34:15;;;;;;;7.13;3.17;;;;;;;7.37;100.00;100341.50;5021681;28;20421;-83
2024/03/16 07:36:44;;;;;;;6.50;2.92;;;;;;;7.40;100.00;100346.38;5017416;28;20430;-83
2024/03/16 07:39:12;;;;;;;9.50;3.20;;;;;;;7.34;100.00;100350.97;5031433;28;20436;-81
2024/03/16 07:41:40;;;;;;;7.35;3.10;;;;;;;7.33;100.00;100365.56;5016207;28;20411;-82
2024/03/16 07:44:09;;;;;;;8.60;3.15;;;;;;;7.19;100.00;100367.94;5035459;28;20434;-82
2024/03/16 07:46:37;;;;;;;10.13;3.22;;;;;;;7.17;100.00;100378.25;5012843;28;20416;-81
2024/03/16 07:49:06;;;;;;;8.15;3.00;;;;;;;7.09;100.00;100395.78;5013513;28;20425;-81
2024/03/16 07:51:35;;;;;;;9.55;3.15;;;;;;;7.06;100.00;100398.22;5031154;28;20424;-86
2024/03/16 07:54:03;;;;;;;12.25;2.97;;;;;;;6.78;100.00;100422.69;5011562;28;20428;-87
2024/03/16 07:56:32;;;;;;;8.38;2.53;;;;;;;6.74;100.00;100418.03;5031710;28;20404;-87
2024/03/16 07:59:05;;;;;;;8.40;2.20;;;;;;;6.59;100.00;100435.00;5031873;28;20943;-85
2024/03/16 08:01:39;;;;;;;10.15;1.92;;;;;;;6.35;100.00;100448.84;5027822;28;20433;-85
2024/03/16 08:04:13;;;;;;;9.07;1.90;;;;;;;6.42;100.00;100445.94;5018819;28;20414;-83
2024/03/16 08:06:46;;;;;;;10.85;2.00;;;;;;;6.43;100.00;100456.47;5023877;28;20417;-85
2024/03/16 08:09:22;;;;;;;15.00;2.20;;;;;;;6.45;100.00;100464.34;5036926;28;20435;-82
2024/03/16 08:11:51;;;;;;;11.77;2.47;;;;;;;6.38;100.00;100469.97;5014152;28;20431;-82
2024/03/16 08:14:24;;;;;;;11.60;2.20;;;;;;;6.43;100.00;100478.09;5024988;28;20432;-83
2024/03/16 08:16:58;;;;;;;7.45;1.60;;;;;;;6.43;100.00;100493.50;5013704;28;20430;-83
2024/03/16 08:19:26;;;;;;;10.27;1.90;;;;;;;6.43;100.00;100485.41;5019194;28;20431;-82
2024/03/16 08:21:54;;;;;;;10.32;1.88;;;;;;;6.39;100.00;100495.09;5013418;28;20433;-83
2024/03/16 08:24:23;;;;;;;11.85;2.00;;;;;;;6.40;100.00;100499.44;5033204;28;20437;-83
2024/03/16 08:26:51;;;;;;;9.20;1.80;;;;;;;6.30;100.00;100503.66;5010492;28;20506;-83
2024/03/16 08:29:25;;;;;;;12.65;2.00;;;;;;;6.18;100.00;100515.72;5012354;28;20425;-83
2024/03/16 08:31:55;;;;;;;9.32;2.03;;;;;;;6.22;100.00;100516.84;5019593;28;20896;-82
2024/03/16 08:34:28;;;;;;;14.45;2.20;;;;;;;6.24;100.00;100531.72;5036681;28;20530;-83
2024/03/16 08:37:01;;;;;;;9.93;1.87;;;;;;;6.15;100.00;100524.34;5013668;28;20438;-84
2024/03/16 08:39:31;;;;;;;10.80;2.13;;;;;;;6.20;100.00;100533.31;5009312;28;20464;-83
2024/03/16 08:41:59;;;;;;;13.27;2.07;;;;;;;6.08;100.00;100538.03;5014069;28;20872;-81
2024/03/16 08:44:34;;;;;;;13.80;2.40;;;;;;;5.96;100.00;100552.44;5019919;28;20446;-82
2024/03/16 08:47:08;;;;;;;9.32;1.70;;;;;;;6.03;100.00;100567.69;5016623;28;20423;-83
2024/03/16 08:49:36;;;;;;;10.70;2.03;;;;;;;5.84;100.00;100565.28;5029478;28;20429;-85
2024/03/16 08:52:10;;;;;;;8.85;2.08;;;;;;;5.73;100.00;100571.59;5027799;28;20901;-82
2024/03/16 08:54:43;;;;;;;6.33;1.87;;;;;;;5.78;100.00;100567.06;5033923;28;20424;-84
2024/03/16 08:57:11;;;;;;;12.27;2.40;;;;;;;5.91;100.00;100575.88;5031564;28;20420;-82
2024/03/16 08:59:42;;;;;;;12.40;3.00;;;;;;;5.85;100.00;100585.00;5011156;28;20419;-87
2024/03/16 09:02:11;;;;;;;11.53;2.67;;;;;;;5.94;100.00;100573.50;5030947;28;20898;-82
2024/03/16 09:04:45;;;;;;;11.30;2.25;;;;;;;6.01;100.00;100581.44;5022911;28;21122;-83
2024/03/16 09:07:19;;;;;;;11.52;2.30;;;;;;;6.06;100.00;100591.50;5026504;28;20428;-82
2024/03/16 09:09:47;;;;;;;7.88;2.40;;;;;;;5.94;100.00;100595.13;5031703;28;20408;-83
2024/03/16 09:12:21;;;;;;;11.93;2.28;;;;;;;6.01;100.00;100599.53;5020588;28;20434;-82
2024/03/16 09:14:49;;;;;;;7.47;2.10;;;;;;;5.89;100.00;100611.25;5023594;28;20426;-83
2024/03/16 09:17:17;;;;;;;7.47;1.95;;;;;;;5.87;100.00;100615.25;5012518;28;20420;-83
2024/03/16 09:19:47;;;;;;;9.25;1.90;;;;;;;6.05;100.00;100614.16;5020839;28;20443;-83
2024/03/16 09:22:16;;;;;;;9.02;1.90;;;;;;;6.20;100.00;100627.06;5017225;28;20432;-87
2024/03/16 09:24:49;;;;;;;8.93;1.67;;;;;;;6.21;100.00;100628.69;5023466;28;20948;-83
2024/03/16 09:27:17;;;;;;;9.63;1.88;;;;;;;6.32;100.00;100627.75;5026926;28;20433;-84
2024/03/16 09:29:46;;;;;;;7.45;1.80;;;;;;;6.27;100.00;100638.47;5015417;28;20401;-84
2024/03/16 09:32:14;;;;;;;10.98;2.10;;;;;;;6.28;100.00;100645.53;5006860;28;20438;-82
2024/03/16 09:34:43;;;;;;;10.20;2.65;;;;;;;6.16;100.00;100655.66;4997135;28;20425;-82
2024/03/16 09:37:11;;;;;;;8.63;3.03;;;;;;;6.21;100.00;100661.94;5023491;28;20423;-83
2024/03/16 09:39:42;;;;;;;10.97;3.17;;;;;;;6.10;100.00;100662.88;5011234;28;20427;-80
2024/03/16 09:42:10;;;;;;;12.02;3.05;;;;;;;6.35;100.00;100666.97;4994213;28;20458;-80
2024/03/16 09:44:39;;;;;;;10.30;3.20;;;;;;;6.27;100.00;100687.97;5044438;28;20432;-82
2024/03/16 09:47:07;;;;;;;9.82;2.80;;;;;;;6.25;100.00;100673.88;4983939;28;20422;-81
2024/03/16 09:49:35;;;;;;;11.23;2.60;;;;;;;6.36;100.00;100679.41;5003720;28;20422;-78
2024/03/16 09:52:04;;;;;;;8.25;2.15;;;;;;;6.36;100.00;100688.34;4996681;28;20440;-82
2024/03/16 09:54:32;;;;;;;9.85;2.35;;;;;;;6.59;100.00;100689.97;4949034;28;20435;-82
2024/03/16 09:57:00;;;;;;;9.73;2.27;;;;;;;6.80;100.00;100684.78;4990193;28;20444;-84
2024/03/16 09:59:31;;;;;;;8.30;1.95;;;;;;;6.88;100.00;100695.16;4980763;28;20441;-86
2024/03/16 10:01:59;;;;;;;5.32;1.63;;;;;;;6.87;100.00;100695.41;4989749;28;20457;-81
2024/03/16 10:04:27;;;;;;;9.80;1.90;;;;;;;7.09;100.00;100698.06;4973228;28;21129;-86
2024/03/16 10:06:55;;;;;;;8.93;1.92;;;;;;;7.20;100.00;100705.19;4984908;28;20429;-86
2024/03/16 10:09:23;;;;;;;6.30;1.65;;;;;;;7.24;100.00;100697.41;5011231;28;20417;-83
2024/03/16 10:11:51;;;;;;;7.80;1.60;;;;;;;7.49;100.00;100703.00;4974572;28;20426;-82
2024/03/16 10:14:18;;;;;;;6.38;1.58;;;;;;;7.48;100.00;100704.09;4986788;28;20425;-84
2024/03/16 10:16:46;;;;;;;7.28;1.80;;;;;;;7.56;100.00;100718.25;4978469;28;20428;-87
2024/03/16 10:19:14;;;;;;;8.52;2.10;;;;;;;7.88;100.00;100710.06;4983847;28;20429;-84
2024/03/16 10:21:44;;;;;;;5.85;1.50;;;;;;;7.78;100.00;100716.22;4975586;28;20429;-82
2024/03/16 10:24:12;;;;;;;8.45;1.80;;;;;;;7.81;100.00;100714.91;4995169;28;20432;-85
2024/03/16 10:26:39;;;;;;;10.27;1.70;;;;;;;7.41;100.00;100732.47;4964911;28;20425;-85
2024/03/16 10:29:07;;;;;;;8.02;1.80;;;;;;;7.48;100.00;100733.91;4982174;28;20429;-86
2024/03/16 10:31:35;;;;;;;7.65;1.67;;;;;;;7.21;100.00;100735.78;4977472;28;20417;-82
2024/03/16 10:34:02;;;;;;;7.25;1.58;;;;;;;7.17;100.00;100746.31;4996172;28;20428;-86
2024/03/16 10:36:30;;;;;;;7.97;1.42;;;;;;;7.26;100.00;100746.66;4993011;28;20444;-83
2024/03/16 10:39:00;;;;;;;7.32;1.50;;;;;;;7.16;100.00;100747.38;4982996;28;20409;-85
2024/03/16 10:41:29;;;;;;;7.55;1.40;;;;;;;7.23;100.00;100758.00;4979214;28;20438;-87
2024/03/16 10:43:57;;;;;;;8.95;1.40;;;;;;;7.41;100.00;100757.63;4988890;28;20438;-85
2024/03/16 10:46:24;;;;;;;8.38;1.45;;;;;;;7.21;100.00;100757.44;4972302;28;21219;-86
2024/03/16 10:48:52;;;;;;;9.52;1.90;;;;;;;7.32;100.00;100770.81;4962758;28;20433;-86
2024/03/16 10:51:19;;;;;;;11.30;1.60;;;;;;;7.15;100.00;100760.13;4964508;28;20425;-83
2024/03/16 10:53:47;;;;;;;7.78;1.35;;;;;;;7.31;100.00;100782.72;4960837;28;20417;-88
2024/03/16 10:56:15;;;;;;;7.72;1.70;;;;;;;7.39;100.00;100780.63;4968252;28;20433;-85
2024/03/16 10:58:42;;;;;;;7.63;1.53;;;;;;;7.31;100.00;100793.56;4983826;28;20422;-82
2024/03/16 11:01:11;;;;;;;8.38;1.70;;;;;;;7.55;100.00;100798.66;4963610;28;20429;-85
2024/03/16 11:03:39;;;;;;;9.18;1.55;;;;;;;7.47;100.00;100791.81;4983581;28;20425;-82
2024/03/16 11:06:09;;;;;;;9.57;1.52;;;;;;;7.67;100.00;100809.34;4982600;28;21020;-82
2024/03/16 11:08:41;;;;;;;6.47;1.60;;;;;;;7.65;100.00;100806.88;4980400;28;20430;-84
2024/03/16 11:11:10;;;;;;;6.63;1.60;;;;;;;7.78;100.00;100815.66;4971309;28;20440;-82
2024/03/16 11:13:39;;;;;;;6.97;1.55;;;;;;;7.74;100.00;100820.78;4980858;28;21784;-87
2024/03/16 11:16:28;;;;;;;8.05;1.60;;;;;;;7.92;100.00;100810.63;4987864;28;20421;-86
2024/03/16 11:18:54;;;;;;;8.60;1.80;;;;;;;8.06;100.00;100814.53;4977323;28;21751;-86
2024/03/16 11:21:22;;;;;;;8.38;1.75;;;;;;;8.18;100.00;100819.78;4969246;28;20458;-84
2024/03/16 11:23:48;;;;;;;7.93;1.50;;;;;;;8.26;100.00;100823.88;4983766;28;20440;-87
2024/03/16 11:26:36;;;;;;;10.23;1.98;;;;;;;8.40;100.00;100821.56;4960187;28;20774;-84
2024/03/16 11:29:04;;;;;;;9.30;2.07;;;;;;;8.17;100.00;100829.81;4994139;28;20444;-83
2024/03/16 11:31:36;;;;;;;6.72;1.88;;;;;;;8.08;100.00;100825.94;4985824;28;20440;-86
2024/03/16 11:34:09;;;;;;;8.77;1.77;;;;;;;8.05;100.00;100825.63;4960331;28;20436;-86